Time;durP1;ratioP1;P1;durP2;ratioP2;P2;SDS_P1;SDS_P2;PMS_P1;PMS_P2;Temp;Humidity;BMP_temperature;BMP_pressure;BME280_temperature;BME280_humidity;BME280_pressure;Samples;Min_cycle;Max_cycle;Signal;HPM_P1;HPM_P2
2023/02/09 00:01:51;;;;;;;29.40;12.48;;;;;;;-6.62;100.00;99849.88;5076553;28;20542;-78
2023/02/09 00:04:17;;;;;;;33.88;11.10;;;;;;;-6.58;100.00;99863.88;5076625;28;20027;-79
2023/02/09 00:06:43;;;;;;;27.13;10.60;;;;;;;-6.64;100.00;99858.41;5076721;28;20024;-79
2023/02/09 00:09:08;;;;;;;29.02;11.43;;;;;;;-6.88;100.00;99831.34;5076482;28;20119;-78
2023/02/09 00:14:18;;;;;;;29.58;12.00;;;;;;;-6.81;100.00;99854.19;5096220;28;20027;-79
2023/02/09 00:17:42;;;;;;;20.63;10.82;;;;;;;-7.25;100.00;99774.25;5093474;28;20034;-79
2023/02/09 00:20:54;;;;;;;;;;;;;;;;;;;;;
2023/02/09 00:37:19;;;;;;;23.73;7.82;;;;;;;-7.00;100.00;99828.22;4876370;29;20504;-78
2023/02/09 00:39:45;;;;;;;22.33;9.02;;;;;;;-6.79;100.00;99870.75;4879979;29;20040;-77
2023/02/09 00:42:10;;;;;;;24.10;9.05;;;;;;;-6.92;100.00;99865.88;4932837;29;20106;-78
2023/02/09 00:44:38;;;;;;;19.90;8.50;;;;;;;-7.01;100.00;99860.25;4960164;28;20129;-78
2023/02/09 00:47:05;;;;;;;20.58;8.55;;;;;;;-7.16;100.00;99831.84;4976669;28;20529;-79
2023/02/09 00:49:32;;;;;;;20.90;8.82;;;;;;;-7.33;100.00;99810.31;4976849;28;20399;-79
2023/02/09 00:51:58;;;;;;;16.38;7.03;;;;;;;-7.03;100.00;99864.47;5012277;28;20064;-77
2023/02/09 00:54:24;;;;;;;20.35;9.50;;;;;;;-7.12;100.00;99854.56;5018867;28;20409;-77
2023/02/09 00:56:49;;;;;;;17.15;8.15;;;;;;;-7.31;100.00;99834.66;5035087;28;20475;-77
2023/02/09 00:59:15;;;;;;;22.55;9.40;;;;;;;-7.05;100.00;99867.03;5035577;28;20037;-78
2023/02/09 01:01:41;;;;;;;24.63;10.60;;;;;;;-7.32;100.00;99827.69;5035237;28;20021;-79
2023/02/09 01:04:07;;;;;;;37.92;13.07;;;;;;;-7.16;100.00;99850.94;5058938;28;20048;-79
2023/02/09 01:06:32;;;;;;;17.83;7.97;;;;;;;-7.31;100.00;99819.06;5039264;28;20480;-77
2023/02/09 01:09:00;;;;;;;32.67;11.88;;;;;;;-7.30;100.00;99818.25;5055905;28;20048;-78
2023/02/09 01:11:28;;;;;;;35.75;11.70;;;;;;;-7.10;100.00;99857.25;5089612;28;20028;-78
2023/02/09 01:13:56;;;;;;;19.30;7.90;;;;;;;-7.37;100.00;99799.72;5039464;28;20023;-78
2023/02/09 01:16:21;;;;;;;29.23;11.07;;;;;;;-7.08;100.00;99843.50;5055735;28;20470;-78
2023/02/09 01:18:47;;;;;;;34.15;11.13;;;;;;;-7.17;100.00;99812.75;5039394;28;20036;-77
2023/02/09 01:21:15;;;;;;;32.22;11.63;;;;;;;-7.01;100.00;99818.66;5039063;28;20034;-78
2023/02/09 01:23:41;;;;;;;9.38;5.30;;;;;;;-6.87;100.00;99831.44;5089302;28;20481;-78
2023/02/09 01:26:08;;;;;;;18.70;7.93;;;;;;;-7.01;100.00;99777.06;5067225;28;20107;-78
2023/02/09 01:28:35;;;;;;;18.92;8.20;;;;;;;-6.79;100.00;99817.03;5064994;28;20051;-78
2023/02/09 01:31:00;;;;;;;29.90;10.90;;;;;;;-6.79;100.00;99793.59;5078894;28;20176;-77
2023/02/09 01:33:26;;;;;;;25.95;10.88;;;;;;;-6.82;100.00;99784.78;5065612;28;20127;-78
2023/02/09 01:35:56;;;;;;;28.55;10.80;;;;;;;-6.74;100.00;99815.53;5058760;28;20028;-78
2023/02/09 01:38:22;;;;;;;34.88;11.48;;;;;;;-6.85;100.00;99806.34;5071119;28;20027;-78
2023/02/09 01:40:48;;;;;;;25.67;11.90;;;;;;;-6.80;100.00;99806.56;5078841;28;20032;-79
2023/02/09 01:43:14;;;;;;;32.58;11.48;;;;;;;-6.81;100.00;99809.97;5059074;28;20058;-78
2023/02/09 01:45:53;;;;;;;44.38;15.38;;;;;;;-6.87;100.00;99805.41;5058619;28;20112;-78
2023/02/09 01:48:22;;;;;;;48.72;16.13;;;;;;;-6.98;100.00;99804.03;5058925;28;20024;-79
2023/02/09 01:50:48;;;;;;;36.05;12.52;;;;;;;-7.21;100.00;99764.09;5058384;28;20460;-78
2023/02/09 01:53:15;;;;;;;40.00;12.43;;;;;;;-7.43;100.00;99750.97;5075424;28;20526;-77
2023/02/09 01:55:48;;;;;;;27.38;11.68;;;;;;;-7.48;100.00;99747.28;5058333;28;20024;-78
2023/02/09 01:58:16;;;;;;;24.25;10.82;;;;;;;-7.38;100.00;99778.03;5058344;28;20396;-78
2023/02/09 02:00:42;;;;;;;25.48;10.23;;;;;;;-7.64;100.00;99765.59;5064578;28;20031;-78
2023/02/09 02:03:10;;;;;;;23.95;10.00;;;;;;;-7.74;100.00;99758.22;5061351;28;20036;-76
2023/02/09 02:05:38;;;;;;;34.95;10.05;;;;;;;-7.65;100.00;99768.13;5086685;28;20094;-77
2023/02/09 02:08:09;;;;;;;18.90;8.85;;;;;;;-7.50;100.00;99800.88;5068693;28;20063;-77
2023/02/09 02:10:34;;;;;;;16.67;8.43;;;;;;;-7.85;100.00;99762.03;5071433;28;20038;-77
2023/02/09 02:13:00;;;;;;;19.42;8.60;;;;;;;-7.91;100.00;99770.44;5094603;28;20482;-77
2023/02/09 02:15:33;;;;;;;19.58;8.23;;;;;;;-7.73;100.00;99801.56;5113258;28;20143;-77
2023/02/09 02:18:26;;;;;;;17.05;7.68;;;;;;;-7.95;100.00;99762.44;5094961;28;20023;-78
2023/02/09 02:21:22;;;;;;;16.95;7.65;;;;;;;-7.64;100.00;99806.28;5113267;28;20035;-78
2023/02/09 02:24:29;;;;;;;20.63;9.02;;;;;;;-7.68;100.00;99805.25;5037957;28;20035;-79
2023/02/09 02:27:04;;;;;;;19.08;8.60;;;;;;;-7.95;100.00;99765.03;5038605;28;20044;-78
2023/02/09 02:29:54;;;;;;;26.77;9.98;;;;;;;-7.65;100.00;99805.38;5083167;28;20388;-77
2023/02/09 02:32:28;;;;;;;17.85;8.88;;;;;;;-7.98;100.00;99760.59;5082561;28;20028;-79
2023/02/09 02:35:00;;;;;;;16.48;7.63;;;;;;;-7.88;100.00;99787.88;5074494;28;20024;-79
2023/02/09 02:37:44;;;;;;;22.38;9.52;;;;;;;-7.94;100.00;99769.41;5077158;28;20027;-79
2023/02/09 02:40:49;;;;;;;41.85;10.45;;;;;;;-7.76;100.00;99793.63;5078036;28;20127;-76
2023/02/09 02:43:17;;;;;;;35.58;11.68;;;;;;;-7.78;100.00;99800.44;4984712;28;20034;-79
2023/02/09 02:45:59;;;;;;;26.90;12.10;;;;;;;-7.78;100.00;99800.44;5057242;28;20036;-78
2023/02/09 02:48:34;;;;;;;35.47;14.95;;;;;;;-8.13;100.00;99736.53;5057390;28;20407;-78
2023/02/09 02:51:20;;;;;;;53.20;16.33;;;;;;;-7.74;100.00;99799.75;5094150;28;20047;-79
2023/02/09 02:53:50;;;;;;;37.72;13.73;;;;;;;-7.99;100.00;99739.72;5081552;28;20456;-78
2023/02/09 02:56:23;;;;;;;37.00;14.25;;;;;;;-7.86;100.00;99750.75;5077397;28;20024;-78
2023/02/09 02:58:50;;;;;;;32.15;11.73;;;;;;;-7.89;100.00;99750.63;5077731;28;20509;-79
2023/02/09 03:01:21;;;;;;;29.30;11.93;;;;;;;-7.72;100.00;99783.44;5077073;28;20027;-78
2023/02/09 03:03:47;;;;;;;26.65;11.07;;;;;;;-8.04;100.00;99730.88;5075680;28;20019;-77
2023/02/09 03:06:13;;;;;;;24.08;10.52;;;;;;;-7.84;100.00;99771.59;5094329;28;20031;-78
2023/02/09 03:08:51;;;;;;;23.63;8.38;;;;;;;-8.00;100.00;99746.66;5076990;28;20028;-77
2023/02/09 03:11:19;;;;;;;22.65;7.85;;;;;;;-7.95;100.00;99741.66;5061839;28;20032;-78
2023/02/09 03:14:05;;;;;;;18.70;8.02;;;;;;;-7.94;100.00;99726.16;5072539;28;20563;-78
2023/02/09 03:16:45;;;;;;;17.88;7.85;;;;;;;-7.77;100.00;99758.06;5092553;28;20044;-79
2023/02/09 03:19:53;;;;;;;20.23;9.02;;;;;;;-7.80;100.00;99739.75;5093785;28;20034;-78
2023/02/09 03:22:37;;;;;;;20.55;9.52;;;;;;;-7.92;100.00;99716.72;5077282;28;20461;-79
2023/02/09 03:25:15;;;;;;;21.38;9.52;;;;;;;-7.99;100.00;99699.09;5053799;28;20393;-78
2023/02/09 03:27:44;;;;;;;24.17;10.77;;;;;;;-8.03;100.00;99711.88;5093701;28;20028;-78
2023/02/09 03:30:13;;;;;;;31.65;8.95;;;;;;;-7.81;100.00;99758.75;5075706;28;20027;-78
2023/02/09 03:32:40;;;;;;;24.67;8.52;;;;;;;-8.18;100.00;99706.00;5077034;28;20106;-79
2023/02/09 03:35:07;;;;;;;16.60;7.50;;;;;;;-8.09;100.00;99722.00;5076802;28;20024;-79
2023/02/09 03:37:33;;;;;;;20.90;7.85;;;;;;;-8.20;100.00;99713.69;5067050;28;20028;-78
2023/02/09 03:39:58;;;;;;;18.15;9.35;;;;;;;-8.20;100.00;99697.22;5080144;28;20035;-78
2023/02/09 03:42:24;;;;;;;16.20;7.13;;;;;;;-7.94;100.00;99754.72;5057638;28;20031;-77
2023/02/09 03:44:49;;;;;;;16.98;7.18;;;;;;;-8.14;100.00;99713.06;5104834;28;20089;-78
2023/02/09 03:47:15;;;;;;;41.63;14.93;;;;;;;-8.29;100.00;99703.81;5065168;28;20373;-79
2023/02/09 03:49:41;;;;;;;46.17;19.27;;;;;;;-8.09;100.00;99750.53;5056634;28;20030;-79
2023/02/09 03:52:09;;;;;;;22.17;9.80;;;;;;;-8.29;100.00;99708.13;5073777;28;20054;-79
2023/02/09 03:54:34;;;;;;;20.50;8.73;;;;;;;-8.29;100.00;99703.81;5074767;28;20069;-79
2023/02/09 03:57:00;;;;;;;23.30;9.73;;;;;;;-8.31;100.00;99727.91;5072502;28;20032;-79
2023/02/09 03:59:29;;;;;;;16.30;8.05;;;;;;;-8.37;100.00;99704.28;5063632;28;20063;-78
2023/02/09 04:01:56;;;;;;;19.42;8.80;;;;;;;-8.24;100.00;99737.72;5076237;28;20027;-79
2023/02/09 04:04:22;;;;;;;23.48;8.63;;;;;;;-8.25;100.00;99734.25;5076566;28;20084;-78
2023/02/09 04:06:48;;;;;;;19.45;7.97;;;;;;;-8.19;100.00;99751.81;5081242;28;20081;-78
2023/02/09 04:09:14;;;;;;;22.23;9.82;;;;;;;-8.30;100.00;99748.72;5056335;28;20037;-79
2023/02/09 04:11:40;;;;;;;22.52;10.32;;;;;;;-8.62;100.00;99702.25;5056986;28;20032;-79
2023/02/09 04:14:07;;;;;;;27.55;10.90;;;;;;;-8.58;100.00;99724.88;5057164;28;20032;-79
2023/02/09 04:16:33;;;;;;;27.95;9.57;;;;;;;-8.37;100.00;99762.25;5063928;28;20043;-79
2023/02/09 04:19:02;;;;;;;23.08;9.35;;;;;;;-8.39;100.00;99765.56;5071704;28;20560;-79
2023/02/09 04:21:28;;;;;;;29.08;9.30;;;;;;;-8.69;100.00;99720.91;5068751;28;20458;-80
2023/02/09 04:23:54;;;;;;;38.30;12.50;;;;;;;-8.43;100.00;99776.63;5063387;28;20028;-78
2023/02/09 04:26:23;;;;;;;28.75;12.18;;;;;;;-8.55;100.00;99766.53;5080269;28;20031;-80
2023/02/09 04:28:48;;;;;;;35.00;14.02;;;;;;;-8.72;100.00;99746.69;5041455;28;20044;-78
2023/02/09 04:31:15;;;;;;;29.17;13.48;;;;;;;-8.53;100.00;99761.44;5076714;28;20027;-80
2023/02/09 04:33:40;;;;;;;34.25;12.93;;;;;;;-8.55;100.00;99743.19;5092764;28;20034;-79
2023/02/09 04:36:09;;;;;;;29.17;12.63;;;;;;;-8.60;100.00;99749.88;5092283;28;20031;-80
2023/02/09 04:38:38;;;;;;;69.70;25.20;;;;;;;-8.52;100.00;99771.00;5097955;28;20110;-80
2023/02/09 04:41:04;;;;;;;49.80;18.65;;;;;;;-8.55;100.00;99756.16;5080816;28;20027;-81
2023/02/09 04:43:30;;;;;;;52.60;19.13;;;;;;;-8.39;100.00;99771.66;5094141;28;20111;-80
2023/02/09 04:45:56;;;;;;;48.50;17.30;;;;;;;-8.47;100.00;99773.00;5076352;28;20019;-77
2023/02/09 04:48:23;;;;;;;44.38;16.92;;;;;;;-8.35;100.00;99783.97;5085417;28;20149;-79
2023/02/09 04:50:49;;;;;;;28.10;11.98;;;;;;;-8.40;100.00;99777.69;5093743;28;20027;-79
2023/02/09 04:53:15;;;;;;;25.13;11.32;;;;;;;-8.62;100.00;99746.34;5091222;28;20083;-79
2023/02/09 04:55:43;;;;;;;35.88;12.02;;;;;;;-8.39;100.00;99788.91;5085631;28;20027;-78
2023/02/09 05:00:55;;;;;;;29.60;11.90;;;;;;;-8.51;100.00;99768.47;5081972;28;20119;-78
2023/02/09 05:03:20;;;;;;;28.20;10.23;;;;;;;-8.51;100.00;99757.19;5064233;28;20024;-80
2023/02/09 05:05:46;;;;;;;34.97;12.15;;;;;;;-8.62;100.00;99756.69;5078709;28;20035;-79
2023/02/09 05:10:55;;;;;;;22.85;11.65;;;;;;;-8.61;100.00;99784.38;5087544;28;20089;-79
2023/02/09 05:13:22;;;;;;;33.13;13.18;;;;;;;-8.68;100.00;99766.78;5077481;28;20032;-79
2023/02/09 05:15:48;;;;;;;30.33;11.50;;;;;;;-8.61;100.00;99781.81;5077950;28;20454;-80
2023/02/09 05:18:13;;;;;;;28.85;11.50;;;;;;;-8.70;100.00;99777.91;5066249;28;20087;-78
2023/02/09 05:20:39;;;;;;;42.13;12.05;;;;;;;-8.90;100.00;99756.16;5074520;28;20048;-77
2023/02/09 05:23:05;;;;;;;37.25;14.57;;;;;;;-8.84;100.00;99762.53;5080733;28;20073;-78
2023/02/09 05:25:30;;;;;;;34.42;11.88;;;;;;;-8.74;100.00;99775.97;5070430;28;20483;-78
2023/02/09 05:27:56;;;;;;;34.92;15.10;;;;;;;-8.99;100.00;99738.47;5083730;28;20031;-80
2023/02/09 05:30:21;;;;;;;31.73;10.98;;;;;;;-8.78;100.00;99767.13;5071256;28;20031;-77
2023/02/09 05:32:47;;;;;;;52.63;13.55;;;;;;;-8.69;100.00;99777.94;5089575;28;20110;-76
2023/02/09 05:35:13;;;;;;;45.17;17.25;;;;;;;-8.77;100.00;99768.91;5059625;28;20028;-75
2023/02/09 05:37:39;;;;;;;59.15;20.58;;;;;;;-8.85;100.00;99749.50;5062549;28;20036;-76
2023/02/09 05:40:05;;;;;;;50.67;21.08;;;;;;;-8.57;100.00;99777.66;5072069;28;20407;-76
2023/02/09 05:42:30;;;;;;;73.53;27.67;;;;;;;-8.83;100.00;99742.69;5077440;28;20020;-77
2023/02/09 05:44:56;;;;;;;78.65;25.30;;;;;;;-8.69;100.00;99777.94;5066550;28;20430;-77
2023/02/09 05:47:23;;;;;;;67.97;24.50;;;;;;;-8.70;100.00;99744.19;5074544;28;20027;-76
2023/02/09 05:49:50;;;;;;;71.55;26.00;;;;;;;-8.50;100.00;99769.38;5077506;28;20019;-77
2023/02/09 05:52:16;;;;;;;57.92;22.55;;;;;;;-8.36;100.00;99786.47;5071774;28;20077;-77
2023/02/09 05:54:42;;;;;;;39.67;17.60;;;;;;;-8.35;100.00;99775.28;5072661;28;20027;-77
2023/02/09 05:57:07;;;;;;;40.70;16.92;;;;;;;-8.46;100.00;99740.19;5062806;28;20032;-76
2023/02/09 05:59:33;;;;;;;47.75;18.70;;;;;;;-8.24;100.00;99754.19;5082920;28;20063;-77
2023/02/09 06:01:58;;;;;;;69.45;23.13;;;;;;;-8.14;100.00;99783.16;5094212;28;20034;-76
2023/02/09 06:04:26;;;;;;;99.28;31.27;;;;;;;-8.24;100.00;99767.16;5058648;28;20024;-77
2023/02/09 06:06:52;;;;;;;69.32;26.90;;;;;;;-8.28;100.00;99736.75;5070780;28;20552;-77
2023/02/09 06:09:18;;;;;;;99.18;34.97;;;;;;;-8.05;100.00;99760.22;5082063;28;20020;-77
2023/02/09 06:11:44;;;;;;;133.43;42.90;;;;;;;-7.99;100.00;99765.69;5092157;28;20123;-78
2023/02/09 06:14:09;;;;;;;109.20;40.63;;;;;;;-7.96;100.00;99745.06;5058026;28;20472;-78
2023/02/09 06:16:35;;;;;;;103.85;36.03;;;;;;;-7.83;100.00;99748.31;5065670;28;20032;-78
2023/02/09 06:19:01;;;;;;;102.85;36.78;;;;;;;-7.81;100.00;99730.19;5071366;28;20055;-78
2023/02/09 06:21:27;;;;;;;93.25;34.28;;;;;;;-7.65;100.00;99732.66;5064231;28;20484;-77
2023/02/09 06:23:52;;;;;;;86.72;28.13;;;;;;;-7.18;100.00;99790.22;5064821;28;20065;-78
2023/02/09 06:26:19;;;;;;;80.32;31.08;;;;;;;-6.85;100.00;99782.06;5065033;28;20012;-78
2023/02/09 06:28:45;;;;;;;71.07;26.38;;;;;;;-6.31;100.00;99784.34;5100039;28;20024;-78
2023/02/09 06:31:11;;;;;;;81.35;31.52;;;;;;;-5.95;100.00;99734.50;5066854;28;20019;-77
2023/02/09 06:33:37;;;;;;;85.10;32.25;;;;;;;-5.42;100.00;99731.25;5091122;28;20111;-78
2023/02/09 06:36:04;;;;;;;77.28;30.35;;;;;;;-4.65;100.00;99705.22;5076311;28;20026;-76
2023/02/09 06:38:30;;;;;;;71.07;27.23;;;;;;;-2.92;100.00;99725.16;5060545;28;20023;-76
2023/02/09 06:40:56;;;;;;;90.95;34.45;;;;;;;-1.48;94.24;99683.09;5087119;28;20030;-76
2023/02/09 06:43:28;;;;;;;102.63;37.95;;;;;;;-0.28;79.59;99680.88;5071040;28;20542;-78
2023/02/09 06:45:53;;;;;;;89.18;35.53;;;;;;;0.55;68.84;99672.34;5068956;28;20023;-77
2023/02/09 06:48:19;;;;;;;75.10;30.85;;;;;;;0.73;62.77;99633.94;5059011;28;20035;-77
2023/02/09 06:50:44;;;;;;;68.00;25.92;;;;;;;1.02;60.94;99624.53;5059538;28;20586;-77
2023/02/09 06:53:11;;;;;;;75.53;30.35;;;;;;;0.97;59.79;99618.38;5071397;28;20114;-77
2023/02/09 06:55:37;;;;;;;70.45;28.00;;;;;;;1.35;58.92;99613.44;5079441;28;20110;-76
2023/02/09 06:58:03;;;;;;;72.15;26.50;;;;;;;1.37;57.54;99572.13;5069353;28;20505;-76
2023/02/09 07:00:30;;;;;;;54.78;21.65;;;;;;;1.09;58.37;99561.38;5059151;28;20023;-76
2023/02/09 07:02:57;;;;;;;58.72;23.67;;;;;;;1.46;57.27;99572.19;5063743;28;20039;-76
2023/02/09 07:05:22;;;;;;;61.80;27.60;;;;;;;1.50;56.44;99569.59;5066585;28;20028;-76
2023/02/09 07:07:48;;;;;;;51.25;22.70;;;;;;;0.70;57.80;99547.88;5078822;28;20407;-75
2023/02/09 07:10:15;;;;;;;50.88;20.98;;;;;;;1.43;57.67;99570.44;5065646;28;20114;-76
2023/02/09 07:12:42;;;;;;;45.63;19.85;;;;;;;1.01;56.87;99546.41;5076365;28;20020;-76
2023/02/09 07:15:08;;;;;;;46.42;20.92;;;;;;;0.14;61.84;99543.78;5084603;28;20140;-76
2023/02/09 07:17:34;;;;;;;47.20;20.20;;;;;;;0.54;59.43;99548.59;5055944;28;20031;-76
2023/02/09 07:19:59;;;;;;;44.88;17.13;;;;;;;0.94;59.01;99563.91;5063038;28;20032;-76
2023/02/09 07:22:25;;;;;;;46.90;19.83;;;;;;;1.32;58.48;99569.47;5065303;28;20483;-76
2023/02/09 07:24:51;;;;;;;69.82;28.90;;;;;;;1.72;57.78;99591.72;5090506;28;20034;-76
2023/02/09 07:27:18;;;;;;;53.53;23.33;;;;;;;1.98;56.54;99570.72;5067452;28;20103;-76
2023/02/09 07:29:43;;;;;;;53.30;22.02;;;;;;;2.34;55.79;99570.88;5066510;28;20474;-76
2023/02/09 07:32:09;;;;;;;47.47;20.33;;;;;;;3.02;53.20;99581.56;5075906;28;20072;-75
2023/02/09 07:34:35;;;;;;;52.83;22.65;;;;;;;3.21;51.92;99556.03;5092845;28;20411;-76
2023/02/09 07:37:00;;;;;;;48.92;19.98;;;;;;;3.39;52.14;99557.75;5075799;28;20439;-75
2023/02/09 07:39:26;;;;;;;46.38;22.55;;;;;;;4.09;51.05;99569.94;5092561;28;20042;-76
2023/02/09 07:41:52;;;;;;;50.78;21.30;;;;;;;4.29;50.35;99570.75;5073099;28;20028;-74
2023/02/09 07:44:17;;;;;;;51.10;22.45;;;;;;;4.62;48.62;99529.94;5092474;28;20032;-76
2023/02/09 07:46:43;;;;;;;62.53;26.73;;;;;;;4.01;48.82;99499.38;5076034;28;20032;-75
2023/02/09 07:49:09;;;;;;;67.72;27.40;;;;;;;3.28;50.35;99495.22;5085777;28;20403;-77
2023/02/09 07:51:35;;;;;;;61.53;25.73;;;;;;;3.87;50.66;99540.91;5089509;28;20028;-77
2023/02/09 07:54:13;;;;;;;61.15;25.83;;;;;;;4.01;49.42;99480.84;5062378;28;20046;-78
2023/02/09 07:56:40;;;;;;;52.08;24.17;;;;;;;4.06;49.74;99495.81;5096352;28;20024;-76
2023/02/09 07:59:06;;;;;;;45.28;20.70;;;;;;;4.03;49.98;99526.75;5076310;28;20411;-76
2023/02/09 08:01:32;;;;;;;50.92;21.05;;;;;;;4.50;49.47;99530.03;5095983;28;20035;-76
2023/02/09 08:03:58;;;;;;;45.92;20.17;;;;;;;4.30;49.50;99495.72;5102672;28;20039;-76
2023/02/09 08:06:40;;;;;;;48.83;18.27;;;;;;;3.71;50.48;99509.22;5077767;28;20036;-76
2023/02/09 08:09:06;;;;;;;52.30;22.25;;;;;;;4.31;49.68;99512.47;5104305;28;20031;-77
2023/02/09 08:11:39;;;;;;;42.40;16.50;;;;;;;5.21;47.86;99534.81;5067900;28;20024;-76
2023/02/09 08:14:11;;;;;;;45.55;19.90;;;;;;;5.23;47.44;99500.31;5058378;28;20024;-76
2023/02/09 08:16:37;;;;;;;43.55;19.42;;;;;;;5.55;47.11;99502.63;5097982;28;20130;-75
2023/02/09 08:19:07;;;;;;;44.97;19.55;;;;;;;5.02;47.68;99479.25;5079352;28;20181;-75
2023/02/09 08:21:35;;;;;;;39.28;17.55;;;;;;;4.55;48.09;99469.94;5092140;28;20051;-77
2023/02/09 08:24:02;;;;;;;46.03;19.17;;;;;;;4.83;48.06;99505.94;5067954;28;20141;-76
2023/02/09 08:26:28;;;;;;;36.15;15.07;;;;;;;5.57;46.01;99477.81;5080125;28;20023;-76
2023/02/09 08:28:54;;;;;;;40.50;17.58;;;;;;;6.27;45.38;99498.25;5075804;28;20561;-76
2023/02/09 08:31:20;;;;;;;36.10;17.05;;;;;;;6.36;44.23;99474.22;5080050;28;20035;-76
2023/02/09 08:33:47;;;;;;;43.08;19.38;;;;;;;6.13;44.08;99465.66;5080669;28;20016;-76
2023/02/09 08:36:14;;;;;;;42.63;18.10;;;;;;;6.50;43.74;99464.25;5079084;28;20023;-76
2023/02/09 08:38:39;;;;;;;33.13;17.38;;;;;;;6.48;43.86;99453.66;5062937;28;20127;-77
2023/02/09 08:41:06;;;;;;;40.63;18.13;;;;;;;7.22;42.60;99469.28;5069903;28;20024;-77
2023/02/09 08:43:33;;;;;;;167.13;48.70;;;;;;;7.45;42.90;99488.38;5076195;28;20106;-77
2023/02/09 08:46:04;;;;;;;108.00;43.78;;;;;;;7.64;41.29;99476.47;5077750;28;20419;-76
2023/02/09 08:48:31;;;;;;;51.05;21.88;;;;;;;7.72;42.03;99466.53;5060482;28;20024;-76
2023/02/09 08:50:57;;;;;;;39.47;18.70;;;;;;;7.74;41.42;99470.06;5064635;28;20035;-77
2023/02/09 08:53:23;;;;;;;42.70;20.75;;;;;;;7.63;41.59;99461.38;5061789;28;20024;-77
2023/02/09 08:55:49;;;;;;;82.57;35.88;;;;;;;7.97;40.94;99467.78;5083965;28;20445;-76
2023/02/09 08:58:14;;;;;;;34.13;17.90;;;;;;;7.95;40.66;99440.31;5078595;28;20028;-77
2023/02/09 09:00:40;;;;;;;42.47;18.75;;;;;;;8.38;40.36;99474.94;5077784;28;20066;-77
2023/02/09 09:03:06;;;;;;;40.47;20.67;;;;;;;8.93;39.35;99482.53;5087273;28;20023;-76
2023/02/09 09:05:33;;;;;;;56.40;26.83;;;;;;;8.42;40.32;99460.66;5092866;28;20474;-77
2023/02/09 09:07:59;;;;;;;44.08;23.20;;;;;;;8.00;40.67;99446.41;5078582;28;20487;-76
2023/02/09 09:10:24;;;;;;;45.03;20.98;;;;;;;8.53;39.96;99458.59;5062810;28;20099;-75
2023/02/09 09:12:56;;;;;;;44.63;20.10;;;;;;;7.84;40.49;99428.13;5061049;28;20056;-76
2023/02/09 09:15:21;;;;;;;41.90;20.63;;;;;;;8.62;40.00;99468.16;5071405;28;20048;-76
2023/02/09 09:17:47;;;;;;;47.35;23.38;;;;;;;8.86;39.91;99443.56;5063222;28;20040;-76
2023/02/09 09:20:21;;;;;;;57.15;29.23;;;;;;;9.83;38.13;99475.72;5075658;28;20096;-77
2023/02/09 09:22:47;;;;;;;39.00;20.48;;;;;;;9.90;37.79;99439.00;5061939;28;20467;-76
2023/02/09 09:25:12;;;;;;;49.53;23.13;;;;;;;10.59;37.11;99460.09;5064413;28;20036;-77
2023/02/09 09:27:38;;;;;;;53.03;22.60;;;;;;;9.69;37.57;99403.94;5072350;28;20047;-77
2023/02/09 09:30:05;;;;;;;52.65;23.27;;;;;;;9.14;38.10;99406.38;5076790;28;20042;-77
2023/02/09 09:32:30;;;;;;;41.47;20.63;;;;;;;9.14;37.63;99398.34;5057808;28;20153;-76
2023/02/09 09:35:02;;;;;;;43.78;20.48;;;;;;;9.17;37.84;99384.94;5057807;28;20114;-76
2023/02/09 09:37:27;;;;;;;35.03;16.75;;;;;;;8.75;38.08;99359.38;5065944;28;20020;-76
2023/02/09 09:39:53;;;;;;;41.22;18.48;;;;;;;9.10;38.45;99386.91;5058582;28;20518;-75
2023/02/09 09:42:38;;;;;;;35.92;15.52;;;;;;;9.42;38.44;99423.41;5063551;28;20024;-75
2023/02/09 09:45:07;;;;;;;60.50;28.17;;;;;;;8.95;38.69;99373.94;5067526;28;20149;-76
2023/02/09 09:47:36;;;;;;;30.77;15.32;;;;;;;9.05;38.28;99369.25;5073145;28;20051;-76
2023/02/09 09:50:32;;;;;;;43.70;19.77;;;;;;;9.81;37.62;99414.28;5083057;28;20032;-75
2023/02/09 09:53:09;;;;;;;23.88;12.60;;;;;;;9.63;37.30;99371.16;5077572;28;20035;-76
2023/02/09 09:55:35;;;;;;;24.30;11.93;;;;;;;9.00;38.02;99348.03;5068361;28;20027;-76
2023/02/09 09:58:04;;;;;;;25.25;12.82;;;;;;;9.35;37.35;99364.88;5074531;28;20036;-75
2023/02/09 10:00:36;;;;;;;24.17;11.48;;;;;;;9.96;38.03;99404.94;5074636;28;20384;-76
2023/02/09 10:03:03;;;;;;;29.05;11.35;;;;;;;10.13;36.52;99378.59;5073681;28;20039;-76
2023/02/09 10:05:37;;;;;;;25.10;11.02;;;;;;;9.02;37.43;99297.25;5057265;28;20032;-75
2023/02/09 10:08:16;;;;;;;19.35;9.75;;;;;;;8.15;39.39;99334.13;5073800;28;20039;-75
2023/02/09 10:11:04;;;;;;;21.80;10.57;;;;;;;8.50;39.28;99361.78;5094275;28;20027;-76
2023/02/09 10:13:53;;;;;;;21.65;9.98;;;;;;;9.23;38.30;99387.44;5079268;28;20031;-76
2023/02/09 10:16:29;;;;;;;18.38;8.98;;;;;;;8.58;38.90;99328.66;5049056;28;20031;-76
2023/02/09 10:19:00;;;;;;;20.52;10.20;;;;;;;9.32;38.25;99383.66;5078524;28;20453;-76
2023/02/09 10:21:32;;;;;;;22.55;10.95;;;;;;;9.78;37.69;99354.72;5056715;28;20042;-76
2023/02/09 10:24:00;;;;;;;17.98;8.55;;;;;;;8.11;38.66;99321.81;5073366;28;20449;-76
2023/02/09 10:26:31;;;;;;;19.58;8.85;;;;;;;9.34;38.28;99344.44;5094185;28;20071;-76
2023/02/09 10:29:06;;;;;;;37.55;15.70;;;;;;;9.14;37.49;99315.59;5093776;28;20035;-77
2023/02/09 10:31:43;;;;;;;19.27;10.18;;;;;;;7.23;39.32;99227.03;5081798;28;20028;-75
2023/02/09 10:34:15;;;;;;;24.90;12.60;;;;;;;7.32;42.16;99329.81;5067377;28;20035;-74
2023/02/09 10:36:49;;;;;;;19.17;9.35;;;;;;;8.39;39.35;99358.50;5069408;28;20019;-75
2023/02/09 10:39:18;;;;;;;30.60;13.07;;;;;;;8.58;39.40;99373.16;5096815;28;20028;-75
2023/02/09 10:41:49;;;;;;;20.75;9.05;;;;;;;8.74;38.21;99336.28;5066880;28;20049;-75
2023/02/09 10:44:24;;;;;;;20.20;9.60;;;;;;;9.90;36.58;99332.97;5070635;28;20023;-75
2023/02/09 10:47:11;;;;;;;26.90;11.38;;;;;;;8.46;39.26;99325.44;5085166;28;20035;-75
2023/02/09 10:49:38;;;;;;;16.63;9.25;;;;;;;9.23;38.49;99348.25;5076261;28;20038;-75
2023/02/09 10:52:21;;;;;;;22.38;10.02;;;;;;;8.96;38.61;99350.81;5083270;28;20471;-76
2023/02/09 10:54:49;;;;;;;22.30;9.80;;;;;;;8.91;38.34;99320.69;5059194;28;20035;-76
2023/02/09 10:57:23;;;;;;;53.28;17.42;;;;;;;10.28;37.45;99371.88;5072673;28;20020;-76
2023/02/09 10:59:51;;;;;;;19.17;10.25;;;;;;;11.34;35.96;99395.09;5056431;28;20027;-76
2023/02/09 11:02:39;;;;;;;35.83;11.05;;;;;;;11.53;34.64;99355.09;5056124;28;20395;-76
2023/02/09 11:05:20;;;;;;;24.13;12.60;;;;;;;10.61;36.53;99344.03;5056257;28;20370;-77
2023/02/09 11:08:15;;;;;;;21.63;9.48;;;;;;;10.31;37.06;99347.72;5070728;28;20031;-76
2023/02/09 11:10:47;;;;;;;18.40;9.38;;;;;;;9.99;36.93;99321.09;5058838;28;20044;-76
2023/02/09 11:13:18;;;;;;;18.25;9.43;;;;;;;9.36;36.93;99259.78;5055950;28;20439;-77
2023/02/09 11:15:53;;;;;;;19.75;9.73;;;;;;;7.62;39.68;99242.16;5059323;28;20481;-76
2023/02/09 11:18:25;;;;;;;17.55;8.70;;;;;;;9.02;37.50;99308.81;5064422;28;20036;-76
2023/02/09 11:21:12;;;;;;;26.10;12.27;;;;;;;10.05;36.79;99321.78;5052749;28;20097;-76
2023/02/09 11:23:43;;;;;;;21.75;11.15;;;;;;;9.94;36.71;99307.88;5073182;28;20059;-76
2023/02/09 11:26:24;;;;;;;19.38;9.88;;;;;;;10.05;36.71;99300.41;5081342;28;20422;-76
2023/02/09 11:28:52;;;;;;;18.67;9.15;;;;;;;10.36;36.69;99326.19;5087061;28;20446;-76
2023/02/09 11:31:29;;;;;;;19.48;10.15;;;;;;;11.19;35.45;99344.72;5053011;28;20063;-77
2023/02/09 11:34:18;;;;;;;19.75;9.20;;;;;;;10.15;35.79;99279.63;5082631;28;20036;-76
2023/02/09 11:37:25;;;;;;;20.98;9.25;;;;;;;10.77;36.51;99315.84;5056452;28;20028;-75
2023/02/09 11:40:18;;;;;;;32.00;11.80;;;;;;;11.47;34.79;99320.50;5028468;28;20025;-76
2023/02/09 11:42:58;;;;;;;27.52;11.60;;;;;;;11.84;33.88;99320.88;5023494;28;20040;-76
2023/02/09 11:45:35;;;;;;;22.95;10.90;;;;;;;12.03;34.37;99321.91;5074619;28;20043;-76
2023/02/09 11:48:08;;;;;;;14.88;7.90;;;;;;;11.19;34.63;99267.94;5085992;28;20041;-77
2023/02/09 11:50:38;;;;;;;15.20;7.65;;;;;;;10.26;36.06;99240.91;5061883;28;20050;-76
2023/02/09 11:53:12;;;;;;;18.88;9.70;;;;;;;11.17;35.33;99280.47;5089634;28;20027;-77
2023/02/09 11:55:47;;;;;;;20.88;9.00;;;;;;;11.27;34.85;99279.22;5090331;28;20070;-75